Portada
METAR-TAF:

METAR-TAF

Aeropuertos :

Aeropuerto Civil de Amán

Amán, Jordania

latitud: 31-59N, longitud: 035-59E, altitud: 767 m

Observación

El informe se hizo hace 14 minutos, a las 10:00 UTC
Viento calma
Temperatura 25°C
Humedad 24%
Presión 1020 hPa
Visibilidad: 8000 m

METAR: OJAM 241000Z 00000KT 8000 NSC 25/03 Q1020 NOSIG

Hora: 13:14 (10:14 UTC)

Pronóstico

El informe se hizo hace 5 horas y 36 minutos, a las 04:38 UTC
Pronóstico válido del 24 a las 06 UTC al 25 a las 12 UTC
Viento kt del norte
Visibilidad: 2500 m
neblina
Evolucionando progresivamente
del 24 a las 08 UTC al 24 a las 10 UTC
Viento 10 kt del oeste-noroeste
Visibilidad: 5000 m
calima

TAF: OJAM 240438Z 2406/2512 00000KT 2500 BR NSC BECMG 2408/2410 29010KT 5000 HZ

Observaciones y pronósticos meteorológicos de más de 4000 aeropuertos (mensajes METAR y TAF).

Los puntos amarillos y rojos representan las estaciones disponibles.

Ponga el ratón en el punto deseado para ver el nombre de la estación.

Haga clic para ver las observaciones y los pronósticos meteorológicos.

Para cambiar el mapa : haga clic en los botones verdes con una cruz de color negro para hacer un zoom, en el botón verde con un guión para alejar o en las flechas verdes para mapas adyacentes.


METAR-TAF: